sensor_id;sensor_type;location;lat;lon;timestamp;pressure;altitude;pressure_sealevel;temperature;humidity
10948;BME280;5526;42.070;24.752;2023-06-22T00:01:22;99173.50;;;24.02;69.22
10948;BME280;5526;42.070;24.752;2023-06-22T00:03:50;99165.19;;;23.95;69.56
10948;BME280;5526;42.070;24.752;2023-06-22T00:06:17;99167.00;;;23.91;69.83
10948;BME280;5526;42.070;24.752;2023-06-22T00:08:44;99167.97;;;23.87;70.20
10948;BME280;5526;42.070;24.752;2023-06-22T00:11:11;99176.81;;;23.87;69.90
10948;BME280;5526;42.070;24.752;2023-06-22T00:13:40;99182.84;;;23.84;70.50
10948;BME280;5526;42.070;24.752;2023-06-22T00:16:07;99184.63;;;23.68;71.57
10948;BME280;5526;42.070;24.752;2023-06-22T00:18:34;99186.75;;;23.63;72.62
10948;BME280;5526;42.070;24.752;2023-06-22T00:21:01;99192.59;;;23.65;72.83
10948;BME280;5526;42.070;24.752;2023-06-22T00:23:28;99185.09;;;23.58;73.75
10948;BME280;5526;42.070;24.752;2023-06-22T00:25:59;99187.97;;;23.53;74.31
10948;BME280;5526;42.070;24.752;2023-06-22T00:28:26;99190.88;;;23.48;74.59
10948;BME280;5526;42.070;24.752;2023-06-22T00:30:55;99196.25;;;23.48;75.02
10948;BME280;5526;42.070;24.752;2023-06-22T00:33:23;99199.81;;;23.40;76.02
10948;BME280;5526;42.070;24.752;2023-06-22T00:35:50;99196.56;;;23.35;76.30
10948;BME280;5526;42.070;24.752;2023-06-22T00:38:18;99194.97;;;23.34;76.57
10948;BME280;5526;42.070;24.752;2023-06-22T00:40:45;99197.09;;;23.28;77.22
10948;BME280;5526;42.070;24.752;2023-06-22T00:43:12;99192.38;;;23.25;77.91
10948;BME280;5526;42.070;24.752;2023-06-22T00:45:39;99195.06;;;23.25;77.59
10948;BME280;5526;42.070;24.752;2023-06-22T00:48:08;99187.66;;;23.22;77.77
10948;BME280;5526;42.070;24.752;2023-06-22T00:50:35;99196.44;;;23.11;78.37
10948;BME280;5526;42.070;24.752;2023-06-22T00:53:03;99199.72;;;23.16;78.22
10948;BME280;5526;42.070;24.752;2023-06-22T00:55:35;99200.16;;;23.18;77.68
10948;BME280;5526;42.070;24.752;2023-06-22T00:58:04;99203.84;;;23.14;77.74
10948;BME280;5526;42.070;24.752;2023-06-22T01:00:33;99188.72;;;23.09;77.30
10948;BME280;5526;42.070;24.752;2023-06-22T01:03:01;99186.34;;;23.08;76.93
10948;BME280;5526;42.070;24.752;2023-06-22T01:05:31;99186.69;;;23.06;76.82
10948;BME280;5526;42.070;24.752;2023-06-22T01:08:08;99187.81;;;23.05;77.37
10948;BME280;5526;42.070;24.752;2023-06-22T01:10:43;99192.25;;;23.01;77.85
10948;BME280;5526;42.070;24.752;2023-06-22T01:13:18;99185.78;;;23.02;78.22
10948;BME280;5526;42.070;24.752;2023-06-22T01:15:51;99179.16;;;23.00;78.25
10948;BME280;5526;42.070;24.752;2023-06-22T01:18:21;99181.28;;;22.94;78.67
10948;BME280;5526;42.070;24.752;2023-06-22T01:20:53;99189.22;;;22.91;78.99
10948;BME280;5526;42.070;24.752;2023-06-22T01:23:29;99182.28;;;22.90;79.13
10948;BME280;5526;42.070;24.752;2023-06-22T01:26:06;99185.28;;;22.88;79.04
10948;BME280;5526;42.070;24.752;2023-06-22T01:28:46;99182.66;;;22.80;78.60
10948;BME280;5526;42.070;24.752;2023-06-22T01:31:16;99180.31;;;22.78;78.74
10948;BME280;5526;42.070;24.752;2023-06-22T01:33:45;99188.25;;;22.75;79.21
10948;BME280;5526;42.070;24.752;2023-06-22T01:36:14;99189.34;;;22.74;79.59
10948;BME280;5526;42.070;24.752;2023-06-22T01:38:42;99179.47;;;22.66;80.21
10948;BME280;5526;42.070;24.752;2023-06-22T01:41:09;99190.44;;;22.73;80.28
10948;BME280;5526;42.070;24.752;2023-06-22T01:43:37;99180.41;;;22.70;80.88
10948;BME280;5526;42.070;24.752;2023-06-22T01:46:06;99183.84;;;22.70;81.29
10948;BME280;5526;42.070;24.752;2023-06-22T01:48:33;99179.47;;;22.66;82.13
10948;BME280;5526;42.070;24.752;2023-06-22T01:51:01;99180.56;;;22.65;82.56
10948;BME280;5526;42.070;24.752;2023-06-22T01:53:28;99176.84;;;22.57;82.76
10948;BME280;5526;42.070;24.752;2023-06-22T01:55:56;99168.22;;;22.52;82.57
10948;BME280;5526;42.070;24.752;2023-06-22T01:58:26;99179.25;;;22.50;82.04
10948;BME280;5526;42.070;24.752;2023-06-22T02:00:58;99182.41;;;22.52;81.99
10948;BME280;5526;42.070;24.752;2023-06-22T02:03:34;99188.09;;;22.51;82.42
10948;BME280;5526;42.070;24.752;2023-06-22T02:06:05;99186.56;;;22.41;83.38
10948;BME280;5526;42.070;24.752;2023-06-22T02:08:39;99194.00;;;22.36;84.95
10948;BME280;5526;42.070;24.752;2023-06-22T02:11:08;99191.97;;;22.33;84.40
10948;BME280;5526;42.070;24.752;2023-06-22T02:13:36;99189.16;;;22.29;84.50
10948;BME280;5526;42.070;24.752;2023-06-22T02:16:08;99186.25;;;22.14;85.17
10948;BME280;5526;42.070;24.752;2023-06-22T02:18:37;99192.84;;;22.16;84.71
10948;BME280;5526;42.070;24.752;2023-06-22T02:21:05;99189.72;;;22.14;85.02
10948;BME280;5526;42.070;24.752;2023-06-22T02:23:33;99185.63;;;22.08;85.47
10948;BME280;5526;42.070;24.752;2023-06-22T02:26:03;99187.69;;;22.11;85.84
10948;BME280;5526;42.070;24.752;2023-06-22T02:28:30;99181.63;;;21.94;86.31
10948;BME280;5526;42.070;24.752;2023-06-22T02:30:57;99192.75;;;22.04;86.57
10948;BME280;5526;42.070;24.752;2023-06-22T02:33:24;99198.91;;;22.05;86.60
10948;BME280;5526;42.070;24.752;2023-06-22T02:35:53;99200.34;;;22.02;87.00
10948;BME280;5526;42.070;24.752;2023-06-22T02:38:20;99198.31;;;21.99;87.47
10948;BME280;5526;42.070;24.752;2023-06-22T02:40:49;99191.38;;;21.98;88.22
10948;BME280;5526;42.070;24.752;2023-06-22T02:43:17;99198.31;;;21.99;88.36
10948;BME280;5526;42.070;24.752;2023-06-22T02:45:44;99200.25;;;21.90;88.67
10948;BME280;5526;42.070;24.752;2023-06-22T02:48:11;99213.03;;;21.85;89.82
10948;BME280;5526;42.070;24.752;2023-06-22T02:50:38;99213.16;;;21.88;88.97
10948;BME280;5526;42.070;24.752;2023-06-22T02:53:06;99202.78;;;21.87;89.42
10948;BME280;5526;42.070;24.752;2023-06-22T02:55:33;99205.63;;;21.82;90.23
10948;BME280;5526;42.070;24.752;2023-06-22T02:58:00;99213.69;;;21.82;90.27
10948;BME280;5526;42.070;24.752;2023-06-22T03:00:30;99214.16;;;21.84;90.66
10948;BME280;5526;42.070;24.752;2023-06-22T03:02:58;99209.72;;;21.88;90.56
10948;BME280;5526;42.070;24.752;2023-06-22T03:05:25;99214.25;;;21.96;90.83
10948;BME280;5526;42.070;24.752;2023-06-22T03:07:52;99210.09;;;22.07;90.75
10948;BME280;5526;42.070;24.752;2023-06-22T03:10:20;99218.81;;;22.24;89.51
10948;BME280;5526;42.070;24.752;2023-06-22T03:12:47;99216.91;;;22.33;88.49
10948;BME280;5526;42.070;24.752;2023-06-22T03:15:14;99223.63;;;22.39;88.83
10948;BME280;5526;42.070;24.752;2023-06-22T03:17:42;99223.75;;;22.51;88.33
10948;BME280;5526;42.070;24.752;2023-06-22T03:20:10;99230.09;;;22.47;89.05
10948;BME280;5526;42.070;24.752;2023-06-22T03:22:38;99230.22;;;22.50;89.38
10948;BME280;5526;42.070;24.752;2023-06-22T03:25:07;99231.94;;;22.55;89.21
10948;BME280;5526;42.070;24.752;2023-06-22T03:27:40;99223.13;;;22.75;88.37
10948;BME280;5526;42.070;24.752;2023-06-22T03:30:08;99239.47;;;23.02;87.55
10948;BME280;5526;42.070;24.752;2023-06-22T03:32:36;99242.69;;;23.16;86.11
10948;BME280;5526;42.070;24.752;2023-06-22T03:37:31;99238.84;;;23.26;85.60
10948;BME280;5526;42.070;24.752;2023-06-22T03:39:58;99237.41;;;23.40;84.84
10948;BME280;5526;42.070;24.752;2023-06-22T03:42:26;99235.50;;;23.29;84.72
10948;BME280;5526;42.070;24.752;2023-06-22T03:44:54;99231.88;;;23.04;86.39
10948;BME280;5526;42.070;24.752;2023-06-22T03:47:22;99230.19;;;23.00;86.72
10948;BME280;5526;42.070;24.752;2023-06-22T03:49:49;99235.34;;;23.25;85.60
10948;BME280;5526;42.070;24.752;2023-06-22T03:52:20;99236.41;;;23.33;85.25
10948;BME280;5526;42.070;24.752;2023-06-22T03:54:48;99241.94;;;23.48;84.88
10948;BME280;5526;42.070;24.752;2023-06-22T03:57:15;99251.63;;;23.73;84.47
10948;BME280;5526;42.070;24.752;2023-06-22T03:59:42;99246.50;;;23.92;82.30
10948;BME280;5526;42.070;24.752;2023-06-22T04:02:11;99245.19;;;24.10;80.07
10948;BME280;5526;42.070;24.752;2023-06-22T04:04:38;99244.06;;;24.11;80.15
10948;BME280;5526;42.070;24.752;2023-06-22T04:07:05;99227.72;;;24.28;79.30
10948;BME280;5526;42.070;24.752;2023-06-22T04:09:33;99239.56;;;24.51;79.37
10948;BME280;5526;42.070;24.752;2023-06-22T04:12:01;99233.84;;;24.65;77.89
10948;BME280;5526;42.070;24.752;2023-06-22T04:14:28;99240.88;;;24.82;75.92
10948;BME280;5526;42.070;24.752;2023-06-22T04:16:55;99242.31;;;24.91;74.83
10948;BME280;5526;42.070;24.752;2023-06-22T04:19:23;99235.72;;;24.89;74.33
10948;BME280;5526;42.070;24.752;2023-06-22T04:21:50;99240.34;;;24.76;75.91
10948;BME280;5526;42.070;24.752;2023-06-22T04:24:17;99246.75;;;24.72;78.14
10948;BME280;5526;42.070;24.752;2023-06-22T04:26:44;99260.22;;;24.23;80.79
10948;BME280;5526;42.070;24.752;2023-06-22T04:29:12;99260.34;;;24.27;81.67
10948;BME280;5526;42.070;24.752;2023-06-22T04:31:40;99255.97;;;24.22;82.44
10948;BME280;5526;42.070;24.752;2023-06-22T04:34:07;99255.84;;;24.43;79.68
10948;BME280;5526;42.070;24.752;2023-06-22T04:36:37;99258.31;;;24.36;79.16
10948;BME280;5526;42.070;24.752;2023-06-22T04:39:05;99250.69;;;24.50;77.49
10948;BME280;5526;42.070;24.752;2023-06-22T04:41:35;99256.81;;;24.87;75.38
10948;BME280;5526;42.070;24.752;2023-06-22T04:44:09;99241.69;;;25.10;73.71
10948;BME280;5526;42.070;24.752;2023-06-22T04:46:36;99243.44;;;25.30;71.83
10948;BME280;5526;42.070;24.752;2023-06-22T04:49:08;99254.88;;;24.99;72.15
10948;BME280;5526;42.070;24.752;2023-06-22T04:51:41;99248.56;;;24.68;74.37
10948;BME280;5526;42.070;24.752;2023-06-22T04:54:09;99261.97;;;24.92;74.23
10948;BME280;5526;42.070;24.752;2023-06-22T04:56:36;99262.03;;;24.68;75.96
10948;BME280;5526;42.070;24.752;2023-06-22T04:59:06;99261.06;;;25.00;74.62
10948;BME280;5526;42.070;24.752;2023-06-22T05:01:33;99249.19;;;25.28;72.90
10948;BME280;5526;42.070;24.752;2023-06-22T05:04:01;99244.84;;;25.67;71.64
10948;BME280;5526;42.070;24.752;2023-06-22T05:06:29;99242.66;;;25.72;70.69
10948;BME280;5526;42.070;24.752;2023-06-22T05:08:57;99238.94;;;26.08;69.47
10948;BME280;5526;42.070;24.752;2023-06-22T05:11:25;99237.25;;;26.50;67.03
10948;BME280;5526;42.070;24.752;2023-06-22T05:13:53;99228.06;;;26.70;64.97
10948;BME280;5526;42.070;24.752;2023-06-22T05:16:22;99235.81;;;26.71;64.11
10948;BME280;5526;42.070;24.752;2023-06-22T05:18:52;99239.47;;;26.98;63.03
10948;BME280;5526;42.070;24.752;2023-06-22T05:21:22;99239.63;;;27.24;60.84
10948;BME280;5526;42.070;24.752;2023-06-22T05:23:50;99242.00;;;27.25;61.54
10948;BME280;5526;42.070;24.752;2023-06-22T05:26:19;99239.31;;;27.48;60.77
10948;BME280;5526;42.070;24.752;2023-06-22T05:28:47;99232.97;;;27.59;60.38
10948;BME280;5526;42.070;24.752;2023-06-22T05:31:14;99238.34;;;27.78;60.03
10948;BME280;5526;42.070;24.752;2023-06-22T05:33:43;99246.53;;;28.04;59.12
10948;BME280;5526;42.070;24.752;2023-06-22T05:36:10;99242.50;;;27.95;59.73
10948;BME280;5526;42.070;24.752;2023-06-22T05:38:38;99245.97;;;28.18;59.94
10948;BME280;5526;42.070;24.752;2023-06-22T05:41:05;99249.00;;;27.90;61.16
10948;BME280;5526;42.070;24.752;2023-06-22T05:43:34;99255.13;;;28.10;59.95
10948;BME280;5526;42.070;24.752;2023-06-22T05:46:02;99257.72;;;28.03;59.98
10948;BME280;5526;42.070;24.752;2023-06-22T05:48:29;99260.13;;;28.34;58.99
10948;BME280;5526;42.070;24.752;2023-06-22T05:50:56;99252.59;;;27.75;60.27
10948;BME280;5526;42.070;24.752;2023-06-22T05:53:24;99237.94;;;27.99;59.25
10948;BME280;5526;42.070;24.752;2023-06-22T05:55:51;99253.69;;;28.65;57.22
10948;BME280;5526;42.070;24.752;2023-06-22T05:58:18;99262.44;;;28.32;58.18
10948;BME280;5526;42.070;24.752;2023-06-22T06:00:46;99253.41;;;28.47;57.29
10948;BME280;5526;42.070;24.752;2023-06-22T06:03:14;99259.09;;;28.16;58.01
10948;BME280;5526;42.070;24.752;2023-06-22T06:05:43;99259.16;;;28.72;57.33
10948;BME280;5526;42.070;24.752;2023-06-22T06:08:10;99257.72;;;28.78;56.76
10948;BME280;5526;42.070;24.752;2023-06-22T06:10:38;99259.47;;;29.22;55.46
10948;BME280;5526;42.070;24.752;2023-06-22T06:13:05;99268.53;;;29.37;54.84
10948;BME280;5526;42.070;24.752;2023-06-22T06:15:33;99249.81;;;29.98;53.28
10948;BME280;5526;42.070;24.752;2023-06-22T06:18:02;99247.84;;;30.45;52.31
10948;BME280;5526;42.070;24.752;2023-06-22T06:20:31;99262.97;;;30.39;52.36
10948;BME280;5526;42.070;24.752;2023-06-22T06:22:58;99244.78;;;30.50;51.43
10948;BME280;5526;42.070;24.752;2023-06-22T06:25:25;99249.34;;;30.36;51.64
10948;BME280;5526;42.070;24.752;2023-06-22T06:27:52;99243.63;;;30.51;52.03
10948;BME280;5526;42.070;24.752;2023-06-22T06:30:20;99245.69;;;30.72;51.21
10948;BME280;5526;42.070;24.752;2023-06-22T06:32:49;99241.47;;;30.74;50.08
10948;BME280;5526;42.070;24.752;2023-06-22T06:35:17;99243.22;;;30.49;49.98
10948;BME280;5526;42.070;24.752;2023-06-22T06:37:47;99247.41;;;30.36;50.33
10948;BME280;5526;42.070;24.752;2023-06-22T06:40:15;99239.06;;;30.66;49.88
10948;BME280;5526;42.070;24.752;2023-06-22T06:42:44;99239.44;;;30.68;51.88
10948;BME280;5526;42.070;24.752;2023-06-22T06:45:12;99242.38;;;31.10;50.30
10948;BME280;5526;42.070;24.752;2023-06-22T06:47:39;99242.50;;;31.31;48.38
10948;BME280;5526;42.070;24.752;2023-06-22T06:50:07;99242.81;;;31.22;49.37
10948;BME280;5526;42.070;24.752;2023-06-22T06:52:36;99235.69;;;30.86;49.12
10948;BME280;5526;42.070;24.752;2023-06-22T06:55:04;99239.75;;;31.27;48.71
10948;BME280;5526;42.070;24.752;2023-06-22T06:57:34;99224.84;;;30.90;50.27
10948;BME280;5526;42.070;24.752;2023-06-22T07:00:03;99243.91;;;31.00;49.90
10948;BME280;5526;42.070;24.752;2023-06-22T07:02:35;99243.66;;;31.37;48.02
10948;BME280;5526;42.070;24.752;2023-06-22T07:05:02;99243.69;;;31.44;47.83
10948;BME280;5526;42.070;24.752;2023-06-22T07:07:30;99238.25;;;31.47;47.74
10948;BME280;5526;42.070;24.752;2023-06-22T07:09:58;99237.91;;;31.67;46.16
10948;BME280;5526;42.070;24.752;2023-06-22T07:12:26;99239.44;;;31.57;46.10
10948;BME280;5526;42.070;24.752;2023-06-22T07:14:53;99236.34;;;31.62;46.05
10948;BME280;5526;42.070;24.752;2023-06-22T07:17:20;99227.84;;;31.88;45.93
10948;BME280;5526;42.070;24.752;2023-06-22T07:19:47;99234.84;;;31.86;45.96
10948;BME280;5526;42.070;24.752;2023-06-22T07:22:14;99238.69;;;31.71;45.22
10948;BME280;5526;42.070;24.752;2023-06-22T07:24:41;99236.00;;;31.85;44.13
10948;BME280;5526;42.070;24.752;2023-06-22T07:27:10;99242.63;;;31.87;44.21
10948;BME280;5526;42.070;24.752;2023-06-22T07:29:38;99237.56;;;32.17;42.81
10948;BME280;5526;42.070;24.752;2023-06-22T07:32:06;99240.69;;;31.81;42.86
10948;BME280;5526;42.070;24.752;2023-06-22T07:34:34;99246.78;;;31.32;43.16
10948;BME280;5526;42.070;24.752;2023-06-22T07:37:01;99243.66;;;31.37;42.63
10948;BME280;5526;42.070;24.752;2023-06-22T07:39:30;99247.94;;;31.31;42.27
10948;BME280;5526;42.070;24.752;2023-06-22T07:41:57;99250.66;;;31.34;42.17
10948;BME280;5526;42.070;24.752;2023-06-22T07:44:25;99245.97;;;31.31;42.83
10948;BME280;5526;42.070;24.752;2023-06-22T07:46:52;99242.41;;;31.20;42.86
10948;BME280;5526;42.070;24.752;2023-06-22T07:49:20;99247.94;;;31.38;41.63
10948;BME280;5526;42.070;24.752;2023-06-22T07:51:47;99243.38;;;31.84;41.97
10948;BME280;5526;42.070;24.752;2023-06-22T07:54:14;99250.31;;;31.53;40.71
10948;BME280;5526;42.070;24.752;2023-06-22T07:56:42;99241.00;;;31.62;41.22
10948;BME280;5526;42.070;24.752;2023-06-22T07:59:09;99246.47;;;31.69;41.30
10948;BME280;5526;42.070;24.752;2023-06-22T08:01:38;99243.78;;;31.83;40.11
10948;BME280;5526;42.070;24.752;2023-06-22T08:04:05;99244.16;;;32.44;38.97
10948;BME280;5526;42.070;24.752;2023-06-22T08:06:32;99243.75;;;32.53;38.48
10948;BME280;5526;42.070;24.752;2023-06-22T08:08:59;99243.75;;;32.53;38.58
10948;BME280;5526;42.070;24.752;2023-06-22T08:11:26;99244.53;;;32.50;38.00
10948;BME280;5526;42.070;24.752;2023-06-22T08:13:53;99237.44;;;32.87;37.89
10948;BME280;5526;42.070;24.752;2023-06-22T08:16:23;99232.00;;;32.91;37.05
10948;BME280;5526;42.070;24.752;2023-06-22T08:18:52;99237.03;;;32.96;36.56
10948;BME280;5526;42.070;24.752;2023-06-22T08:21:19;99234.31;;;32.99;36.91
10948;BME280;5526;42.070;24.752;2023-06-22T08:23:46;99227.72;;;32.86;36.80
10948;BME280;5526;42.070;24.752;2023-06-22T08:26:14;99226.59;;;32.70;37.22
10948;BME280;5526;42.070;24.752;2023-06-22T08:28:41;99225.06;;;32.58;37.54
10948;BME280;5526;42.070;24.752;2023-06-22T08:31:08;99219.47;;;33.04;36.46
10948;BME280;5526;42.070;24.752;2023-06-22T08:33:39;99228.78;;;33.10;36.11
10948;BME280;5526;42.070;24.752;2023-06-22T08:36:08;99216.19;;;33.40;36.74
10948;BME280;5526;42.070;24.752;2023-06-22T08:38:36;99207.63;;;33.28;36.06
10948;BME280;5526;42.070;24.752;2023-06-22T08:41:03;99207.16;;;33.47;35.58
10948;BME280;5526;42.070;24.752;2023-06-22T08:43:30;99216.72;;;33.04;36.14
10948;BME280;5526;42.070;24.752;2023-06-22T08:45:57;99213.19;;;33.10;36.36
10948;BME280;5526;42.070;24.752;2023-06-22T08:48:24;99218.66;;;33.10;36.41
10948;BME280;5526;42.070;24.752;2023-06-22T08:50:51;99214.56;;;33.50;34.88
10948;BME280;5526;42.070;24.752;2023-06-22T08:53:20;99216.66;;;33.83;33.71
10948;BME280;5526;42.070;24.752;2023-06-22T08:55:47;99209.41;;;34.10;32.84
10948;BME280;5526;42.070;24.752;2023-06-22T08:58:16;99203.69;;;34.38;32.55
10948;BME280;5526;42.070;24.752;2023-06-22T09:00:43;99205.75;;;34.64;33.01
10948;BME280;5526;42.070;24.752;2023-06-22T09:03:10;99211.75;;;35.19;32.44
10948;BME280;5526;42.070;24.752;2023-06-22T09:05:38;99200.78;;;35.49;31.34
10948;BME280;5526;42.070;24.752;2023-06-22T09:08:05;99203.50;;;35.23;31.87
10948;BME280;5526;42.070;24.752;2023-06-22T09:10:33;99200.81;;;34.89;32.06
10948;BME280;5526;42.070;24.752;2023-06-22T09:13:00;99203.28;;;34.76;32.73
10948;BME280;5526;42.070;24.752;2023-06-22T09:15:27;99203.69;;;35.09;33.18
10948;BME280;5526;42.070;24.752;2023-06-22T09:17:55;99196.50;;;35.18;32.24
10948;BME280;5526;42.070;24.752;2023-06-22T09:20:23;99198.16;;;35.42;31.26
10948;BME280;5526;42.070;24.752;2023-06-22T09:22:50;99199.28;;;35.45;31.72
10948;BME280;5526;42.070;24.752;2023-06-22T09:25:17;99194.47;;;35.52;31.13
10948;BME280;5526;42.070;24.752;2023-06-22T09:27:47;99203.13;;;35.74;31.04
10948;BME280;5526;42.070;24.752;2023-06-22T09:30:14;99199.66;;;35.96;30.16
10948;BME280;5526;42.070;24.752;2023-06-22T09:32:41;99201.63;;;35.69;30.20
10948;BME280;5526;42.070;24.752;2023-06-22T09:35:09;99200.25;;;36.50;28.25
10948;BME280;5526;42.070;24.752;2023-06-22T09:37:38;99183.28;;;35.93;28.95
10948;BME280;5526;42.070;24.752;2023-06-22T09:40:06;99182.72;;;36.01;29.03
10948;BME280;5526;42.070;24.752;2023-06-22T09:42:36;99184.94;;;35.37;29.87
10948;BME280;5526;42.070;24.752;2023-06-22T09:45:06;99183.03;;;34.37;30.82
10948;BME280;5526;42.070;24.752;2023-06-22T09:47:33;99182.09;;;34.50;30.35
10948;BME280;5526;42.070;24.752;2023-06-22T09:50:00;99182.25;;;34.70;30.79
10948;BME280;5526;42.070;24.752;2023-06-22T09:52:27;99187.91;;;35.16;30.25
10948;BME280;5526;42.070;24.752;2023-06-22T09:54:55;99184.66;;;34.98;30.10
10948;BME280;5526;42.070;24.752;2023-06-22T09:57:22;99184.22;;;35.33;30.03
10948;BME280;5526;42.070;24.752;2023-06-22T09:59:49;99167.69;;;35.40;29.86
10948;BME280;5526;42.070;24.752;2023-06-22T10:02:17;99181.50;;;35.56;28.92
10948;BME280;5526;42.070;24.752;2023-06-22T10:04:44;99182.19;;;36.33;27.63
10948;BME280;5526;42.070;24.752;2023-06-22T10:07:11;99185.84;;;35.54;28.45
10948;BME280;5526;42.070;24.752;2023-06-22T10:09:38;99184.63;;;35.81;29.52
10948;BME280;5526;42.070;24.752;2023-06-22T10:12:06;99173.16;;;35.90;28.77
10948;BME280;5526;42.070;24.752;2023-06-22T10:14:33;99173.41;;;35.72;29.45
10948;BME280;5526;42.070;24.752;2023-06-22T10:17:01;99171.41;;;36.22;28.63
10948;BME280;5526;42.070;24.752;2023-06-22T10:19:30;99171.72;;;36.47;28.38
10948;BME280;5526;42.070;24.752;2023-06-22T10:21:57;99169.22;;;36.76;27.71
10948;BME280;5526;42.070;24.752;2023-06-22T10:24:24;99162.78;;;36.82;27.81
10948;BME280;5526;42.070;24.752;2023-06-22T10:26:51;99170.88;;;36.70;28.02
10948;BME280;5526;42.070;24.752;2023-06-22T10:29:20;99158.47;;;36.62;28.28
10948;BME280;5526;42.070;24.752;2023-06-22T10:31:47;99164.97;;;36.71;27.71
10948;BME280;5526;42.070;24.752;2023-06-22T10:34:14;99158.66;;;36.74;27.50
10948;BME280;5526;42.070;24.752;2023-06-22T10:36:43;99154.28;;;36.96;29.21
10948;BME280;5526;42.070;24.752;2023-06-22T10:39:12;99157.78;;;37.13;28.73
10948;BME280;5526;42.070;24.752;2023-06-22T10:41:40;99148.50;;;37.26;27.49
10948;BME280;5526;42.070;24.752;2023-06-22T10:44:07;99140.25;;;37.26;27.67
10948;BME280;5526;42.070;24.752;2023-06-22T10:46:35;99146.25;;;37.21;28.04
10948;BME280;5526;42.070;24.752;2023-06-22T10:49:02;99142.16;;;37.45;27.70
10948;BME280;5526;42.070;24.752;2023-06-22T10:51:29;99129.69;;;37.41;26.54
10948;BME280;5526;42.070;24.752;2023-06-22T10:53:58;99123.44;;;37.40;26.55
10948;BME280;5526;42.070;24.752;2023-06-22T10:56:25;99119.59;;;37.38;27.06
10948;BME280;5526;42.070;24.752;2023-06-22T10:58:52;99115.97;;;37.41;27.04
10948;BME280;5526;42.070;24.752;2023-06-22T11:01:20;99124.66;;;37.55;26.39
10948;BME280;5526;42.070;24.752;2023-06-22T11:03:47;99117.44;;;38.51;25.40
10948;BME280;5526;42.070;24.752;2023-06-22T11:06:14;99122.63;;;37.59;27.05
10948;BME280;5526;42.070;24.752;2023-06-22T11:08:44;99111.78;;;37.68;24.75
10948;BME280;5526;42.070;24.752;2023-06-22T11:11:12;99116.25;;;37.62;26.13
10948;BME280;5526;42.070;24.752;2023-06-22T11:13:39;99118.41;;;37.99;24.69
10948;BME280;5526;42.070;24.752;2023-06-22T11:16:06;99113.84;;;37.64;27.17
10948;BME280;5526;42.070;24.752;2023-06-22T11:18:33;99109.56;;;37.47;25.83
10948;BME280;5526;42.070;24.752;2023-06-22T11:21:00;99112.88;;;37.23;26.57
10948;BME280;5526;42.070;24.752;2023-06-22T11:23:27;99119.44;;;36.93;26.99
10948;BME280;5526;42.070;24.752;2023-06-22T11:25:55;99111.22;;;37.89;25.35
10948;BME280;5526;42.070;24.752;2023-06-22T11:28:23;99112.22;;;38.40;25.51
10948;BME280;5526;42.070;24.752;2023-06-22T11:30:51;99111.50;;;38.52;24.49
10948;BME280;5526;42.070;24.752;2023-06-22T11:33:19;99107.69;;;38.05;25.55
10948;BME280;5526;42.070;24.752;2023-06-22T11:35:46;99109.41;;;37.99;25.94
10948;BME280;5526;42.070;24.752;2023-06-22T11:38:13;99114.69;;;37.45;25.78
10948;BME280;5526;42.070;24.752;2023-06-22T11:40:40;99115.34;;;36.82;25.89
10948;BME280;5526;42.070;24.752;2023-06-22T11:43:07;99123.88;;;36.68;26.19
10948;BME280;5526;42.070;24.752;2023-06-22T11:45:35;99118.31;;;36.91;26.29
10948;BME280;5526;42.070;24.752;2023-06-22T11:48:03;99109.56;;;36.96;27.04
10948;BME280;5526;42.070;24.752;2023-06-22T11:50:30;99113.72;;;36.84;26.94
10948;BME280;5526;42.070;24.752;2023-06-22T11:53:01;99106.31;;;37.01;26.48
10948;BME280;5526;42.070;24.752;2023-06-22T11:55:28;99104.91;;;37.28;25.75
10948;BME280;5526;42.070;24.752;2023-06-22T11:57:56;99109.72;;;37.56;25.75
10948;BME280;5526;42.070;24.752;2023-06-22T12:00:26;99088.75;;;37.62;26.32
10948;BME280;5526;42.070;24.752;2023-06-22T12:02:54;99102.44;;;38.10;26.43
10948;BME280;5526;42.070;24.752;2023-06-22T12:05:22;99096.22;;;38.22;26.27
10948;BME280;5526;42.070;24.752;2023-06-22T12:07:50;99076.25;;;37.90;26.26
10948;BME280;5526;42.070;24.752;2023-06-22T12:10:19;99095.50;;;37.90;26.17
10948;BME280;5526;42.070;24.752;2023-06-22T12:12:46;99092.31;;;37.91;26.67
10948;BME280;5526;42.070;24.752;2023-06-22T12:15:14;99090.97;;;37.83;26.62
10948;BME280;5526;42.070;24.752;2023-06-22T12:17:41;99088.25;;;37.67;27.08
10948;BME280;5526;42.070;24.752;2023-06-22T12:20:10;99098.72;;;37.56;26.93
10948;BME280;5526;42.070;24.752;2023-06-22T12:22:38;99081.28;;;37.79;26.42
10948;BME280;5526;42.070;24.752;2023-06-22T12:25:05;99088.47;;;37.57;26.91
10948;BME280;5526;42.070;24.752;2023-06-22T12:27:33;99080.28;;;37.25;27.25
10948;BME280;5526;42.070;24.752;2023-06-22T12:30:00;99083.72;;;36.58;27.82
10948;BME280;5526;42.070;24.752;2023-06-22T12:32:27;99076.28;;;36.94;27.87
10948;BME280;5526;42.070;24.752;2023-06-22T12:34:55;99076.47;;;36.87;27.98
10948;BME280;5526;42.070;24.752;2023-06-22T12:37:23;99070.34;;;36.95;27.45
10948;BME280;5526;42.070;24.752;2023-06-22T12:39:50;99079.16;;;36.71;27.30
10948;BME280;5526;42.070;24.752;2023-06-22T12:42:17;99074.44;;;36.71;27.76
10948;BME280;5526;42.070;24.752;2023-06-22T12:44:44;99079.31;;;36.44;27.99
10948;BME280;5526;42.070;24.752;2023-06-22T12:47:11;99068.34;;;36.44;27.96
10948;BME280;5526;42.070;24.752;2023-06-22T12:49:38;99066.47;;;36.77;28.25
10948;BME280;5526;42.070;24.752;2023-06-22T12:52:09;99065.81;;;37.05;27.76
10948;BME280;5526;42.070;24.752;2023-06-22T12:54:38;99063.50;;;36.87;27.69
10948;BME280;5526;42.070;24.752;2023-06-22T12:57:06;99063.63;;;36.45;28.40
10948;BME280;5526;42.070;24.752;2023-06-22T12:59:33;99064.38;;;36.06;28.67
10948;BME280;5526;42.070;24.752;2023-06-22T13:02:00;99059.41;;;36.21;29.13
10948;BME280;5526;42.070;24.752;2023-06-22T13:04:27;99058.63;;;36.20;28.81
10948;BME280;5526;42.070;24.752;2023-06-22T13:06:54;99054.91;;;36.11;29.13